Terminal Aerodrome Forecast
Issued by NWS Northern Indiana

Home | Current Version | Previous Version | Graphics & Text | Print | Product List | Glossary Off
Versions: 1 2 3 4 5 6 7 8 9 10 11 12 13

923
FTUS43 KIWX 292339
TAFFWA
TAF
KFWA 292339Z 3000/3024 04008KT P6SM VCSH OVC015
      TEMPO 3000/3004 3SM SHRA BR OVC008
     FM300900 06010KT 4SM -SHRA BR OVC008
     FM301700 07010KT P6SM VCSH OVC015
     FM302100 07010KT P6SM OVC020=

USA.gov is the U.S. government's official web portal to all federal, state and local government web resources and services.